sensor_id;sensor_type;location;lat;lon;timestamp;pressure;altitude;pressure_sealevel;temperature;humidity
47104;BME280;32853;52.164;5.400;2024-03-25T00:00:42;100671.38;;;8.07;100.00
47104;BME280;32853;52.164;5.400;2024-03-25T00:03:13;100670.63;;;8.03;100.00
47104;BME280;32853;52.164;5.400;2024-03-25T00:05:38;100680.09;;;8.06;100.00
47104;BME280;32853;52.164;5.400;2024-03-25T00:08:04;100678.63;;;7.99;100.00
47104;BME280;32853;52.164;5.400;2024-03-25T00:10:29;100676.88;;;7.98;100.00
47104;BME280;32853;52.164;5.400;2024-03-25T00:12:54;100678.56;;;8.00;100.00
47104;BME280;32853;52.164;5.400;2024-03-25T00:15:21;100676.69;;;8.04;100.00
47104;BME280;32853;52.164;5.400;2024-03-25T00:17:48;100683.25;;;7.89;100.00
47104;BME280;32853;52.164;5.400;2024-03-25T00:20:14;100670.06;;;7.94;100.00
47104;BME280;32853;52.164;5.400;2024-03-25T00:22:42;100671.16;;;7.86;100.00
47104;BME280;32853;52.164;5.400;2024-03-25T00:25:21;100669.38;;;7.89;100.00
47104;BME280;32853;52.164;5.400;2024-03-25T00:27:47;100667.53;;;7.92;100.00
47104;BME280;32853;52.164;5.400;2024-03-25T00:30:16;100657.97;;;7.93;100.00
47104;BME280;32853;52.164;5.400;2024-03-25T00:32:46;100657.91;;;7.94;100.00
47104;BME280;32853;52.164;5.400;2024-03-25T00:35:12;100657.34;;;7.84;100.00
47104;BME280;32853;52.164;5.400;2024-03-25T00:37:37;100658.63;;;7.71;100.00
47104;BME280;32853;52.164;5.400;2024-03-25T00:40:03;100656.31;;;7.90;100.00
47104;BME280;32853;52.164;5.400;2024-03-25T00:42:29;100653.56;;;7.95;100.00
47104;BME280;32853;52.164;5.400;2024-03-25T00:44:57;100656.53;;;7.82;100.00
47104;BME280;32853;52.164;5.400;2024-03-25T00:49:51;100658.06;;;7.90;100.00
47104;BME280;32853;52.164;5.400;2024-03-25T00:52:21;100649.47;;;7.86;100.00
47104;BME280;32853;52.164;5.400;2024-03-25T00:54:50;100645.22;;;7.83;100.00
47104;BME280;32853;52.164;5.400;2024-03-25T00:57:23;100655.59;;;7.85;100.00
47104;BME280;32853;52.164;5.400;2024-03-25T00:59:48;100660.84;;;7.83;100.00
47104;BME280;32853;52.164;5.400;2024-03-25T01:02:16;100658.63;;;7.71;100.00
47104;BME280;32853;52.164;5.400;2024-03-25T01:04:42;100662.94;;;7.72;100.00
47104;BME280;32853;52.164;5.400;2024-03-25T01:07:07;100666.22;;;7.79;100.00
47104;BME280;32853;52.164;5.400;2024-03-25T01:09:32;100665.59;;;7.71;100.00
47104;BME280;32853;52.164;5.400;2024-03-25T01:11:58;100671.69;;;7.70;100.00
47104;BME280;32853;52.164;5.400;2024-03-25T01:14:23;100665.53;;;7.72;100.00
47104;BME280;32853;52.164;5.400;2024-03-25T01:16:48;100662.19;;;7.69;100.00
47104;BME280;32853;52.164;5.400;2024-03-25T01:19:13;100661.28;;;7.70;100.00
47104;BME280;32853;52.164;5.400;2024-03-25T01:21:42;100659.63;;;7.67;100.00
47104;BME280;32853;52.164;5.400;2024-03-25T01:24:15;100668.41;;;7.63;100.00
47104;BME280;32853;52.164;5.400;2024-03-25T01:26:40;100664.91;;;7.66;100.00
47104;BME280;32853;52.164;5.400;2024-03-25T01:29:05;100669.31;;;7.62;100.00
47104;BME280;32853;52.164;5.400;2024-03-25T01:31:30;100673.56;;;7.66;100.00
47104;BME280;32853;52.164;5.400;2024-03-25T01:33:56;100672.78;;;7.63;100.00
47104;BME280;32853;52.164;5.400;2024-03-25T01:36:21;100673.03;;;7.55;100.00
47104;BME280;32853;52.164;5.400;2024-03-25T01:38:46;100673.16;;;7.50;100.00
47104;BME280;32853;52.164;5.400;2024-03-25T01:41:12;100681.06;;;7.47;100.00
47104;BME280;32853;52.164;5.400;2024-03-25T01:43:38;100673.09;;;7.52;100.00
47104;BME280;32853;52.164;5.400;2024-03-25T01:46:04;100669.91;;;7.44;100.00
47104;BME280;32853;52.164;5.400;2024-03-25T01:48:31;100666.34;;;7.46;100.00
47104;BME280;32853;52.164;5.400;2024-03-25T01:50:56;100669.75;;;7.48;100.00
47104;BME280;32853;52.164;5.400;2024-03-25T01:55:57;100668.94;;;7.46;100.00
47104;BME280;32853;52.164;5.400;2024-03-25T02:00:55;100673.38;;;7.43;100.00
47104;BME280;32853;52.164;5.400;2024-03-25T02:03:24;100670.09;;;7.36;100.00
47104;BME280;32853;52.164;5.400;2024-03-25T02:06:04;100678.59;;;7.43;100.00
47104;BME280;32853;52.164;5.400;2024-03-25T02:08:31;100672.50;;;7.44;100.00
47104;BME280;32853;52.164;5.400;2024-03-25T02:10:57;100678.91;;;7.31;100.00
47104;BME280;32853;52.164;5.400;2024-03-25T02:13:26;100679.06;;;7.26;100.00
47104;BME280;32853;52.164;5.400;2024-03-25T02:15:55;100677.53;;;7.19;100.00
47104;BME280;32853;52.164;5.400;2024-03-25T02:18:32;100675.78;;;7.19;100.00
47104;BME280;32853;52.164;5.400;2024-03-25T02:20:58;100675.63;;;7.25;100.00
47104;BME280;32853;52.164;5.400;2024-03-25T02:23:24;100676.31;;;7.31;100.00
47104;BME280;32853;52.164;5.400;2024-03-25T02:25:49;100677.09;;;7.34;100.00
47104;BME280;32853;52.164;5.400;2024-03-25T02:28:15;100675.34;;;7.35;100.00
47104;BME280;32853;52.164;5.400;2024-03-25T02:30:41;100679.78;;;7.31;100.00
47104;BME280;32853;52.164;5.400;2024-03-25T02:33:06;100673.66;;;7.34;100.00
47104;BME280;32853;52.164;5.400;2024-03-25T02:35:31;100682.44;;;7.29;100.00
47104;BME280;32853;52.164;5.400;2024-03-25T02:37:57;100678.91;;;7.31;100.00
47104;BME280;32853;52.164;5.400;2024-03-25T02:40:22;100676.47;;;7.26;100.00
47104;BME280;32853;52.164;5.400;2024-03-25T02:42:48;100679.91;;;7.26;100.00
47104;BME280;32853;52.164;5.400;2024-03-25T02:45:13;100678.13;;;7.28;100.00
47104;BME280;32853;52.164;5.400;2024-03-25T02:47:39;100677.91;;;7.36;100.00
47104;BME280;32853;52.164;5.400;2024-03-25T02:50:04;100681.53;;;7.31;100.00
47104;BME280;32853;52.164;5.400;2024-03-25T02:52:30;100673.13;;;7.22;100.00
47104;BME280;32853;52.164;5.400;2024-03-25T02:54:58;100679.03;;;7.27;100.00
47104;BME280;32853;52.164;5.400;2024-03-25T02:57:23;100668.88;;;7.18;100.00
47104;BME280;32853;52.164;5.400;2024-03-25T02:59:48;100670.94;;;7.07;100.00
47104;BME280;32853;52.164;5.400;2024-03-25T03:02:14;100670.63;;;7.18;100.00
47104;BME280;32853;52.164;5.400;2024-03-25T03:04:39;100668.75;;;7.23;100.00
47104;BME280;32853;52.164;5.400;2024-03-25T03:07:04;100660.00;;;7.25;100.00
47104;BME280;32853;52.164;5.400;2024-03-25T03:09:42;100666.78;;;7.31;100.00
47104;BME280;32853;52.164;5.400;2024-03-25T03:12:07;100666.22;;;7.20;100.00
47104;BME280;32853;52.164;5.400;2024-03-25T03:14:32;100660.81;;;7.27;100.00
47104;BME280;32853;52.164;5.400;2024-03-25T03:16:58;100660.91;;;7.24;100.00
47104;BME280;32853;52.164;5.400;2024-03-25T03:19:26;100654.72;;;7.28;100.00
47104;BME280;32853;52.164;5.400;2024-03-25T03:21:52;100661.84;;;7.22;100.00
47104;BME280;32853;52.164;5.400;2024-03-25T03:24:19;100665.34;;;7.21;100.00
47104;BME280;32853;52.164;5.400;2024-03-25T03:26:45;100665.47;;;7.16;100.00
47104;BME280;32853;52.164;5.400;2024-03-25T03:29:13;100665.47;;;7.16;100.00
47104;BME280;32853;52.164;5.400;2024-03-25T03:31:38;100660.16;;;7.19;100.00
47104;BME280;32853;52.164;5.400;2024-03-25T03:34:04;100663.78;;;7.15;100.00
47104;BME280;32853;52.164;5.400;2024-03-25T03:36:29;100649.81;;;7.18;100.00
47104;BME280;32853;52.164;5.400;2024-03-25T03:38:54;100654.84;;;7.24;100.00
47104;BME280;32853;52.164;5.400;2024-03-25T03:41:22;100653.28;;;7.18;100.00
47104;BME280;32853;52.164;5.400;2024-03-25T03:43:47;100648.97;;;7.17;100.00
47104;BME280;32853;52.164;5.400;2024-03-25T03:46:15;100651.63;;;7.16;100.00
47104;BME280;32853;52.164;5.400;2024-03-25T03:48:40;100649.97;;;7.13;100.00
47104;BME280;32853;52.164;5.400;2024-03-25T03:51:10;100655.22;;;7.12;100.00
47104;BME280;32853;52.164;5.400;2024-03-25T03:53:36;100647.31;;;7.15;100.00
47104;BME280;32853;52.164;5.400;2024-03-25T03:56:04;100645.56;;;7.15;100.00
47104;BME280;32853;52.164;5.400;2024-03-25T03:58:41;100649.81;;;7.18;100.00
47104;BME280;32853;52.164;5.400;2024-03-25T04:01:22;100642.91;;;7.17;100.00
47104;BME280;32853;52.164;5.400;2024-03-25T04:03:48;100632.56;;;7.15;100.00
47104;BME280;32853;52.164;5.400;2024-03-25T04:06:23;100627.53;;;7.09;100.00
47104;BME280;32853;52.164;5.400;2024-03-25T04:08:52;100630.81;;;7.16;100.00
47104;BME280;32853;52.164;5.400;2024-03-25T04:11:19;100636.91;;;7.15;100.00
47104;BME280;32853;52.164;5.400;2024-03-25T04:13:46;100632.72;;;7.11;100.00
47104;BME280;32853;52.164;5.400;2024-03-25T04:16:17;100635.31;;;7.11;100.00
47104;BME280;32853;52.164;5.400;2024-03-25T04:21:31;100636.16;;;7.11;100.00
47104;BME280;32853;52.164;5.400;2024-03-25T04:23:56;100639.56;;;7.13;100.00
47104;BME280;32853;52.164;5.400;2024-03-25T04:26:23;100648.63;;;7.00;100.00
47104;BME280;32853;52.164;5.400;2024-03-25T04:28:48;100648.66;;;6.98;100.00
47104;BME280;32853;52.164;5.400;2024-03-25T04:31:15;100646.06;;;6.97;100.00
47104;BME280;32853;52.164;5.400;2024-03-25T04:33:40;100647.97;;;6.92;100.00
47104;BME280;32853;52.164;5.400;2024-03-25T04:36:06;100651.28;;;6.97;100.00
47104;BME280;32853;52.164;5.400;2024-03-25T04:38:46;100652.28;;;6.93;100.00
47104;BME280;32853;52.164;5.400;2024-03-25T04:41:22;100654.03;;;6.92;100.00
47104;BME280;32853;52.164;5.400;2024-03-25T04:43:47;100644.59;;;6.88;100.00
47104;BME280;32853;52.164;5.400;2024-03-25T04:46:13;100649.81;;;6.87;100.00
47104;BME280;32853;52.164;5.400;2024-03-25T04:48:40;100637.81;;;6.83;100.00
47104;BME280;32853;52.164;5.400;2024-03-25T04:51:06;100639.53;;;6.84;100.00
47104;BME280;32853;52.164;5.400;2024-03-25T04:53:31;100643.22;;;6.75;100.00
47104;BME280;32853;52.164;5.400;2024-03-25T04:56:10;100638.13;;;6.72;100.00
47104;BME280;32853;52.164;5.400;2024-03-25T04:58:35;100658.13;;;6.68;100.00
47104;BME280;32853;52.164;5.400;2024-03-25T05:01:01;100649.59;;;6.63;100.00
47104;BME280;32853;52.164;5.400;2024-03-25T05:03:29;100651.47;;;6.58;100.00
47104;BME280;32853;52.164;5.400;2024-03-25T05:05:54;100652.25;;;6.62;100.00
47104;BME280;32853;52.164;5.400;2024-03-25T05:08:22;100653.91;;;6.64;100.00
47104;BME280;32853;52.164;5.400;2024-03-25T05:10:47;100655.78;;;6.59;100.00
47104;BME280;32853;52.164;5.400;2024-03-25T05:13:12;100646.56;;;6.48;100.00
47104;BME280;32853;52.164;5.400;2024-03-25T05:15:37;100650.78;;;6.52;100.00
47104;BME280;32853;52.164;5.400;2024-03-25T05:18:03;100655.16;;;6.50;100.00
47104;BME280;32853;52.164;5.400;2024-03-25T05:20:28;100668.06;;;6.54;100.00
47104;BME280;32853;52.164;5.400;2024-03-25T05:22:53;100661.16;;;6.52;100.00
47104;BME280;32853;52.164;5.400;2024-03-25T05:25:22;100671.69;;;6.47;100.00
47104;BME280;32853;52.164;5.400;2024-03-25T05:27:55;100675.09;;;6.49;100.00
47104;BME280;32853;52.164;5.400;2024-03-25T05:30:24;100675.28;;;6.43;100.00
47104;BME280;32853;52.164;5.400;2024-03-25T05:32:51;100676.88;;;6.47;100.00
47104;BME280;32853;52.164;5.400;2024-03-25T05:35:16;100668.25;;;6.47;100.00
47104;BME280;32853;52.164;5.400;2024-03-25T05:37:41;100674.38;;;6.44;100.00
47104;BME280;32853;52.164;5.400;2024-03-25T05:42:38;100676.84;;;6.49;100.00
47104;BME280;32853;52.164;5.400;2024-03-25T05:45:04;100674.38;;;6.44;100.00
47104;BME280;32853;52.164;5.400;2024-03-25T05:47:29;100674.34;;;6.46;100.00
47104;BME280;32853;52.164;5.400;2024-03-25T05:49:54;100669.19;;;6.44;100.00
47104;BME280;32853;52.164;5.400;2024-03-25T05:52:19;100664.97;;;6.38;100.00
47104;BME280;32853;52.164;5.400;2024-03-25T05:54:45;100663.16;;;6.42;100.00
47104;BME280;32853;52.164;5.400;2024-03-25T05:57:10;100660.63;;;6.39;100.00
47104;BME280;32853;52.164;5.400;2024-03-25T05:59:35;100670.13;;;6.40;100.00
47104;BME280;32853;52.164;5.400;2024-03-25T06:08:18;100676.19;;;6.40;100.00
47104;BME280;32853;52.164;5.400;2024-03-25T06:11:11;100664.78;;;6.46;100.00
47104;BME280;32853;52.164;5.400;2024-03-25T06:13:36;100660.59;;;6.40;100.00
47104;BME280;32853;52.164;5.400;2024-03-25T06:16:10;100667.34;;;6.48;100.00
47104;BME280;32853;52.164;5.400;2024-03-25T06:18:47;100661.34;;;6.46;100.00
47104;BME280;32853;52.164;5.400;2024-03-25T06:21:18;100658.75;;;6.46;100.00
47104;BME280;32853;52.164;5.400;2024-03-25T06:23:49;100663.03;;;6.47;100.00
47104;BME280;32853;52.164;5.400;2024-03-25T06:26:37;100667.41;;;6.46;100.00
47104;BME280;32853;52.164;5.400;2024-03-25T06:29:05;100660.59;;;6.40;100.00
47104;BME280;32853;52.164;5.400;2024-03-25T06:31:41;100655.34;;;6.42;100.00
47104;BME280;32853;52.164;5.400;2024-03-25T06:34:34;100653.59;;;6.44;100.00
47104;BME280;32853;52.164;5.400;2024-03-25T06:37:06;100653.47;;;6.49;100.00
47104;BME280;32853;52.164;5.400;2024-03-25T06:39:41;100655.06;;;6.53;100.00
47104;BME280;32853;52.164;5.400;2024-03-25T06:48:25;100657.47;;;6.60;100.00
47104;BME280;32853;52.164;5.400;2024-03-25T06:51:01;100654.88;;;6.60;100.00
47104;BME280;32853;52.164;5.400;2024-03-25T06:53:40;100656.53;;;6.63;100.00
47104;BME280;32853;52.164;5.400;2024-03-25T06:56:08;100651.28;;;6.66;100.00
47104;BME280;32853;52.164;5.400;2024-03-25T06:58:36;100657.09;;;6.74;100.00
47104;BME280;32853;52.164;5.400;2024-03-25T07:01:07;100653.47;;;6.81;100.00
47104;BME280;32853;52.164;5.400;2024-03-25T07:03:35;100647.97;;;6.92;100.00
47104;BME280;32853;52.164;5.400;2024-03-25T07:06:01;100653.75;;;7.02;100.00
47104;BME280;32853;52.164;5.400;2024-03-25T07:08:27;100651.75;;;7.11;100.00
47104;BME280;32853;52.164;5.400;2024-03-25T07:10:54;100655.81;;;7.21;100.00
47104;BME280;32853;52.164;5.400;2024-03-25T07:13:19;100651.03;;;7.36;100.00
47104;BME280;32853;52.164;5.400;2024-03-25T07:15:46;100649.97;;;7.43;100.00
47104;BME280;32853;52.164;5.400;2024-03-25T07:18:12;100646.91;;;7.58;100.00
47104;BME280;32853;52.164;5.400;2024-03-25T07:20:40;100655.00;;;7.77;100.00
47104;BME280;32853;52.164;5.400;2024-03-25T07:29:23;100657.44;;;8.09;100.00
47104;BME280;32853;52.164;5.400;2024-03-25T07:34:43;100654.78;;;8.37;100.00
47104;BME280;32853;52.164;5.400;2024-03-25T07:37:09;100653.47;;;8.51;100.00
47104;BME280;32853;52.164;5.400;2024-03-25T07:39:37;100655.56;;;8.66;100.00
47104;BME280;32853;52.164;5.400;2024-03-25T07:42:02;100654.41;;;8.73;100.00
47104;BME280;32853;52.164;5.400;2024-03-25T07:44:28;100656.25;;;8.71;100.00
47104;BME280;32853;52.164;5.400;2024-03-25T07:46:53;100655.00;;;8.81;100.00
47104;BME280;32853;52.164;5.400;2024-03-25T07:49:20;100654.69;;;8.90;100.00
47104;BME280;32853;52.164;5.400;2024-03-25T07:51:45;100657.91;;;8.97;100.00
47104;BME280;32853;52.164;5.400;2024-03-25T07:54:11;100659.91;;;9.14;100.00
47104;BME280;32853;52.164;5.400;2024-03-25T07:56:39;100662.75;;;9.31;100.00
47104;BME280;32853;52.164;5.400;2024-03-25T07:59:11;100663.44;;;9.36;100.00
47104;BME280;32853;52.164;5.400;2024-03-25T08:04:21;100659.97;;;9.36;100.00
47104;BME280;32853;52.164;5.400;2024-03-25T08:06:58;100665.25;;;9.34;100.00
47104;BME280;32853;52.164;5.400;2024-03-25T08:09:27;100664.53;;;9.52;100.00
47104;BME280;32853;52.164;5.400;2024-03-25T08:11:53;100672.66;;;9.68;100.00
47104;BME280;32853;52.164;5.400;2024-03-25T08:14:21;100673.75;;;9.84;100.00
47104;BME280;32853;52.164;5.400;2024-03-25T08:16:49;100680.72;;;9.84;100.00
47104;BME280;32853;52.164;5.400;2024-03-25T08:19:14;100677.94;;;9.88;100.00
47104;BME280;32853;52.164;5.400;2024-03-25T08:21:40;100682.91;;;10.16;100.00
47104;BME280;32853;52.164;5.400;2024-03-25T08:24:14;100680.88;;;10.25;100.00
47104;BME280;32853;52.164;5.400;2024-03-25T08:26:58;100682.13;;;10.36;100.00
47104;BME280;32853;52.164;5.400;2024-03-25T08:29:27;100684.84;;;10.55;100.00
47104;BME280;32853;52.164;5.400;2024-03-25T08:31:58;100676.91;;;10.57;100.00
47104;BME280;32853;52.164;5.400;2024-03-25T08:34:28;100671.03;;;10.72;100.00
47104;BME280;32853;52.164;5.400;2024-03-25T08:37:07;100671.88;;;10.93;100.00
47104;BME280;32853;52.164;5.400;2024-03-25T08:42:37;100680.88;;;10.86;100.00
47104;BME280;32853;52.164;5.400;2024-03-25T08:48:27;100679.84;;;10.90;100.00
47104;BME280;32853;52.164;5.400;2024-03-25T08:54:00;100676.00;;;10.98;100.00
47104;BME280;32853;52.164;5.400;2024-03-25T08:56:33;100669.91;;;11.17;100.00
47104;BME280;32853;52.164;5.400;2024-03-25T08:59:10;100670.50;;;11.23;100.00
47104;BME280;32853;52.164;5.400;2024-03-25T09:01:47;100672.50;;;11.37;100.00
47104;BME280;32853;52.164;5.400;2024-03-25T09:04:21;100666.00;;;11.46;100.00
47104;BME280;32853;52.164;5.400;2024-03-25T09:10:00;100664.22;;;11.65;100.00
47104;BME280;32853;52.164;5.400;2024-03-25T09:12:44;100664.22;;;11.65;97.17
47104;BME280;32853;52.164;5.400;2024-03-25T09:15:15;100660.59;;;11.49;100.00
47104;BME280;32853;52.164;5.400;2024-03-25T09:17:43;100664.75;;;11.72;100.00
47104;BME280;32853;52.164;5.400;2024-03-25T09:20:16;100656.16;;;11.88;99.44
47104;BME280;32853;52.164;5.400;2024-03-25T09:22:50;100660.03;;;11.80;100.00
47104;BME280;32853;52.164;5.400;2024-03-25T09:25:23;100653.06;;;11.79;98.42
47104;BME280;32853;52.164;5.400;2024-03-25T09:30:58;100650.69;;;11.55;100.00
47104;BME280;32853;52.164;5.400;2024-03-25T09:33:27;100655.66;;;11.80;100.00
47104;BME280;32853;52.164;5.400;2024-03-25T09:36:16;100657.75;;;11.91;94.27
47104;BME280;32853;52.164;5.400;2024-03-25T09:38:48;100651.69;;;12.08;100.00
47104;BME280;32853;52.164;5.400;2024-03-25T09:41:18;100656.03;;;12.26;95.81
47104;BME280;32853;52.164;5.400;2024-03-25T09:49:12;100646.78;;;12.36;92.85
47104;BME280;32853;52.164;5.400;2024-03-25T09:51:40;100650.94;;;12.40;85.24
47104;BME280;32853;52.164;5.400;2024-03-25T09:54:09;100647.16;;;12.63;86.25
47104;BME280;32853;52.164;5.400;2024-03-25T09:56:35;100645.81;;;12.72;84.11
47104;BME280;32853;52.164;5.400;2024-03-25T09:59:15;100642.59;;;12.67;86.38
47104;BME280;32853;52.164;5.400;2024-03-25T10:01:41;100634.31;;;12.74;90.76
47104;BME280;32853;52.164;5.400;2024-03-25T10:04:15;100640.84;;;13.00;86.94
47104;BME280;32853;52.164;5.400;2024-03-25T10:06:40;100634.66;;;13.01;82.10
47104;BME280;32853;52.164;5.400;2024-03-25T10:09:09;100625.38;;;13.12;82.05
47104;BME280;32853;52.164;5.400;2024-03-25T10:14:22;100620.00;;;12.97;83.12
47104;BME280;32853;52.164;5.400;2024-03-25T10:16:58;100616.97;;;13.05;85.90
47104;BME280;32853;52.164;5.400;2024-03-25T10:19:25;100618.06;;;13.01;85.25
47104;BME280;32853;52.164;5.400;2024-03-25T10:21:50;100619.13;;;12.97;84.38
47104;BME280;32853;52.164;5.400;2024-03-25T10:24:36;100611.47;;;13.09;82.69
47104;BME280;32853;52.164;5.400;2024-03-25T10:27:01;100608.16;;;13.06;78.71
47104;BME280;32853;52.164;5.400;2024-03-25T10:29:27;100604.44;;;13.10;80.92
47104;BME280;32853;52.164;5.400;2024-03-25T10:31:59;100599.59;;;13.20;84.60
47104;BME280;32853;52.164;5.400;2024-03-25T10:34:25;100600.84;;;13.28;82.16
47104;BME280;32853;52.164;5.400;2024-03-25T10:36:57;100596.88;;;13.21;85.32
47104;BME280;32853;52.164;5.400;2024-03-25T10:39:27;100592.47;;;13.22;78.83
47104;BME280;32853;52.164;5.400;2024-03-25T10:41:56;100596.59;;;13.26;79.98
47104;BME280;32853;52.164;5.400;2024-03-25T10:44:23;100592.78;;;13.47;74.18
47104;BME280;32853;52.164;5.400;2024-03-25T10:47:00;100590.88;;;13.18;77.07
47104;BME280;32853;52.164;5.400;2024-03-25T10:49:34;100587.97;;;13.40;81.70
47104;BME280;32853;52.164;5.400;2024-03-25T10:52:03;100583.97;;;13.48;79.20
47104;BME280;32853;52.164;5.400;2024-03-25T10:54:37;100579.06;;;13.58;78.38
47104;BME280;32853;52.164;5.400;2024-03-25T10:57:16;100572.59;;;13.79;79.80
47104;BME280;32853;52.164;5.400;2024-03-25T10:59:56;100562.53;;;14.02;77.33
47104;BME280;32853;52.164;5.400;2024-03-25T11:02:23;100574.13;;;14.28;76.78
47104;BME280;32853;52.164;5.400;2024-03-25T11:04:49;100565.38;;;14.27;71.30
47104;BME280;32853;52.164;5.400;2024-03-25T11:07:16;100566.13;;;14.29;69.56
47104;BME280;32853;52.164;5.400;2024-03-25T11:09:42;100560.06;;;14.43;65.66
47104;BME280;32853;52.164;5.400;2024-03-25T11:12:12;100572.19;;;14.31;60.53
47104;BME280;32853;52.164;5.400;2024-03-25T11:14:42;100561.06;;;14.12;61.33
47104;BME280;32853;52.164;5.400;2024-03-25T11:17:16;100558.53;;;14.24;65.66
47104;BME280;32853;52.164;5.400;2024-03-25T11:19:42;100548.13;;;13.93;62.75
47104;BME280;32853;52.164;5.400;2024-03-25T11:22:10;100545.50;;;13.93;69.23
47104;BME280;32853;52.164;5.400;2024-03-25T11:24:43;100542.41;;;14.31;69.13
47104;BME280;32853;52.164;5.400;2024-03-25T11:27:12;100539.41;;;14.51;65.54
47104;BME280;32853;52.164;5.400;2024-03-25T11:29:39;100533.91;;;14.56;62.32
47104;BME280;32853;52.164;5.400;2024-03-25T11:32:11;100537.44;;;14.83;61.66
47104;BME280;32853;52.164;5.400;2024-03-25T11:34:37;100534.53;;;14.88;60.63
47104;BME280;32853;52.164;5.400;2024-03-25T11:37:02;100535.94;;;14.79;60.48
47104;BME280;32853;52.164;5.400;2024-03-25T11:39:29;100533.97;;;14.68;58.33
47104;BME280;32853;52.164;5.400;2024-03-25T11:42:02;100533.13;;;14.68;58.57
47104;BME280;32853;52.164;5.400;2024-03-25T11:44:39;100524.94;;;14.87;64.99
47104;BME280;32853;52.164;5.400;2024-03-25T11:47:05;100521.31;;;15.16;59.35
47104;BME280;32853;52.164;5.400;2024-03-25T11:49:33;100523.78;;;15.05;57.52
47104;BME280;32853;52.164;5.400;2024-03-25T11:52:00;100512.91;;;15.24;59.01
47104;BME280;32853;52.164;5.400;2024-03-25T11:54:27;100506.00;;;15.62;58.60
47104;BME280;32853;52.164;5.400;2024-03-25T11:56:53;100510.44;;;15.62;58.02
47104;BME280;32853;52.164;5.400;2024-03-25T11:59:19;100504.00;;;15.39;54.78
47104;BME280;32853;52.164;5.400;2024-03-25T12:01:46;100505.41;;;15.18;56.52
47104;BME280;32853;52.164;5.400;2024-03-25T12:04:18;100490.94;;;15.10;56.12
47104;BME280;32853;52.164;5.400;2024-03-25T12:06:47;100492.53;;;15.13;55.73
47104;BME280;32853;52.164;5.400;2024-03-25T12:09:26;100485.88;;;15.34;53.20
47104;BME280;32853;52.164;5.400;2024-03-25T12:12:25;100474.28;;;15.37;55.04
47104;BME280;32853;52.164;5.400;2024-03-25T12:14:50;100481.03;;;15.68;55.67
47104;BME280;32853;52.164;5.400;2024-03-25T12:17:17;100475.91;;;15.92;54.86
47104;BME280;32853;52.164;5.400;2024-03-25T12:22:32;100474.28;;;15.37;53.58
47104;BME280;32853;52.164;5.400;2024-03-25T12:24:59;100467.75;;;15.30;53.83
47104;BME280;32853;52.164;5.400;2024-03-25T12:27:25;100464.19;;;15.44;54.39
47104;BME280;32853;52.164;5.400;2024-03-25T12:30:00;100459.97;;;15.14;54.01
47104;BME280;32853;52.164;5.400;2024-03-25T12:32:39;100452.81;;;15.16;53.55
47104;BME280;32853;52.164;5.400;2024-03-25T12:35:07;100453.75;;;15.15;53.40
47104;BME280;32853;52.164;5.400;2024-03-25T12:37:33;100449.06;;;15.20;52.61
47104;BME280;32853;52.164;5.400;2024-03-25T12:42:32;100451.19;;;15.40;52.61
47104;BME280;32853;52.164;5.400;2024-03-25T12:45:00;100452.38;;;15.49;52.29
47104;BME280;32853;52.164;5.400;2024-03-25T12:47:26;100450.38;;;15.67;53.04
47104;BME280;32853;52.164;5.400;2024-03-25T12:49:51;100448.81;;;15.77;51.12
47104;BME280;32853;52.164;5.400;2024-03-25T12:52:19;100441.94;;;15.75;50.60
47104;BME280;32853;52.164;5.400;2024-03-25T12:54:47;100447.22;;;15.75;51.39
47104;BME280;32853;52.164;5.400;2024-03-25T12:57:13;100435.19;;;15.96;51.44
47104;BME280;32853;52.164;5.400;2024-03-25T12:59:38;100441.41;;;15.69;51.23
47104;BME280;32853;52.164;5.400;2024-03-25T13:02:12;100431.06;;;15.66;49.55
47104;BME280;32853;52.164;5.400;2024-03-25T13:04:40;100422.53;;;15.76;49.62
47104;BME280;32853;52.164;5.400;2024-03-25T13:07:07;100428.44;;;16.05;49.47
47104;BME280;32853;52.164;5.400;2024-03-25T13:09:33;100433.09;;;16.01;48.08
47104;BME280;32853;52.164;5.400;2024-03-25T13:11:59;100418.19;;;15.62;48.73
47104;BME280;32853;52.164;5.400;2024-03-25T13:14:25;100421.00;;;15.59;48.81
47104;BME280;32853;52.164;5.400;2024-03-25T13:16:54;100418.28;;;15.60;49.61
47104;BME280;32853;52.164;5.400;2024-03-25T13:19:26;100413.44;;;15.67;49.68
47104;BME280;32853;52.164;5.400;2024-03-25T13:22:05;100413.91;;;15.47;48.90
47104;BME280;32853;52.164;5.400;2024-03-25T13:24:31;100415.19;;;15.41;48.42
47104;BME280;32853;52.164;5.400;2024-03-25T13:29:25;100399.41;;;15.14;48.56
47104;BME280;32853;52.164;5.400;2024-03-25T13:31:50;100407.00;;;15.19;47.97
47104;BME280;32853;52.164;5.400;2024-03-25T13:34:16;100394.38;;;15.24;49.25
47104;BME280;32853;52.164;5.400;2024-03-25T13:36:44;100383.94;;;14.95;49.14
47104;BME280;32853;52.164;5.400;2024-03-25T13:39:09;100390.25;;;15.20;48.55
47104;BME280;32853;52.164;5.400;2024-03-25T13:41:35;100390.16;;;14.94;49.50
47104;BME280;32853;52.164;5.400;2024-03-25T13:44:06;100385.25;;;15.02;49.03
47104;BME280;32853;52.164;5.400;2024-03-25T13:46:36;100380.31;;;14.83;49.46
47104;BME280;32853;52.164;5.400;2024-03-25T13:49:04;100379.38;;;14.85;49.39
47104;BME280;32853;52.164;5.400;2024-03-25T13:51:29;100376.84;;;14.56;49.03
47104;BME280;32853;52.164;5.400;2024-03-25T13:53:59;100372.28;;;14.72;49.63
47104;BME280;32853;52.164;5.400;2024-03-25T13:56:26;100367.13;;;14.98;49.23
47104;BME280;32853;52.164;5.400;2024-03-25T13:58:56;100357.16;;;15.16;48.44
47104;BME280;32853;52.164;5.400;2024-03-25T14:01:24;100351.75;;;15.04;49.36
47104;BME280;32853;52.164;5.400;2024-03-25T14:03:55;100351.09;;;14.74;49.02
47104;BME280;32853;52.164;5.400;2024-03-25T14:06:20;100344.16;;;14.73;49.85